Time;durP1;ratioP1;P1;durP2;ratioP2;P2;SDS_P1;SDS_P2;PMS_P1;PMS_P2;Temp;Humidity;BMP_temperature;BMP_pressure;BME280_temperature;BME280_humidity;BME280_pressure;Samples;Min_cycle;Max_cycle;Signal;HPM_P1;HPM_P2
2022/12/03 00:01:11;;;;;;;30.33;12.30;;;;;;;-148.88;100.00;77945.13;5014202;28;20025;-76
2022/12/03 00:03:37;;;;;;;28.63;11.30;;;;;;;-148.88;100.00;77953.25;5015563;28;20358;-75
2022/12/03 00:06:02;;;;;;;31.05;11.30;;;;;;;-148.88;100.00;77953.25;5015571;28;20021;-75
2022/12/03 00:08:27;;;;;;;30.52;11.52;;;;;;;-148.88;100.00;77953.25;5014095;28;20072;-75
2022/12/03 00:10:53;;;;;;;29.48;10.35;;;;;;;-148.88;100.00;77947.16;5015442;28;20468;-75
2022/12/03 00:13:18;;;;;;;28.13;10.63;;;;;;;-148.88;100.00;77955.28;5015181;28;20026;-75
2022/12/03 00:15:43;;;;;;;25.92;10.40;;;;;;;-148.88;100.00;77951.22;5015505;28;20067;-75
2022/12/03 00:18:08;;;;;;;32.95;11.63;;;;;;;-148.88;100.00;77947.16;5013985;28;20025;-75
2022/12/03 00:20:34;;;;;;;33.40;11.35;;;;;;;-148.88;100.00;77951.22;5015139;28;20117;-75
2022/12/03 00:22:59;;;;;;;33.50;12.00;;;;;;;-148.88;100.00;77957.31;5015153;28;20021;-75
2022/12/03 00:25:24;;;;;;;27.42;11.02;;;;;;;-148.88;100.00;77953.25;5015018;28;20345;-75
2022/12/03 00:27:49;;;;;;;34.45;11.85;;;;;;;-148.88;100.00;77947.16;5013824;28;20034;-75
2022/12/03 00:30:15;;;;;;;29.80;10.35;;;;;;;-148.88;100.00;77951.22;5015047;28;20021;-75
2022/12/03 00:32:40;;;;;;;31.48;11.20;;;;;;;-148.88;100.00;77951.22;5014868;28;20397;-75
2022/12/03 00:35:06;;;;;;;29.50;9.80;;;;;;;-148.88;100.00;77939.03;5014803;28;20087;-75
2022/12/03 00:37:33;;;;;;;34.85;11.85;;;;;;;-148.88;100.00;77939.03;5014879;28;20120;-75
2022/12/03 00:39:59;;;;;;;39.38;12.82;;;;;;;-148.88;100.00;77941.06;5014813;28;20030;-75
2022/12/03 00:42:25;;;;;;;36.33;11.75;;;;;;;-148.88;100.00;77943.09;5015048;28;20025;-75
2022/12/03 00:44:50;;;;;;;40.25;13.68;;;;;;;-148.88;100.00;77947.16;5014053;28;20026;-75
2022/12/03 00:47:15;;;;;;;40.17;11.68;;;;;;;-148.88;100.00;77947.16;5014762;28;20042;-75
2022/12/03 00:49:40;;;;;;;36.42;12.48;;;;;;;-148.88;100.00;77949.19;5014111;28;20030;-75
2022/12/03 00:52:06;;;;;;;35.17;11.27;;;;;;;-148.88;100.00;77943.09;5013347;28;20109;-76
2022/12/03 00:54:31;;;;;;;38.53;12.60;;;;;;;-148.88;100.00;77943.09;5013200;28;20114;-75
2022/12/03 00:56:57;;;;;;;36.40;11.70;;;;;;;-148.88;100.00;77943.09;5014501;28;20076;-75
2022/12/03 00:59:22;;;;;;;38.95;12.43;;;;;;;-148.88;100.00;77947.16;5014543;28;20026;-75
2022/12/03 01:01:47;;;;;;;48.05;13.02;;;;;;;-148.88;100.00;77953.25;5013217;28;20018;-75
2022/12/03 01:04:13;;;;;;;39.22;13.00;;;;;;;-148.88;100.00;77963.41;5013066;28;20026;-75
2022/12/03 01:06:38;;;;;;;40.13;12.57;;;;;;;-148.88;100.00;77967.47;5014458;28;20029;-75
2022/12/03 01:09:04;;;;;;;40.97;12.55;;;;;;;-148.88;100.00;77967.47;5014459;28;20017;-75
2022/12/03 01:11:38;;;;;;;34.10;12.77;;;;;;;-148.88;100.00;77963.41;5014190;28;20080;-75
2022/12/03 01:14:09;;;;;;;37.58;13.57;;;;;;;-148.88;100.00;77967.47;5013535;28;20164;-76
2022/12/03 01:16:34;;;;;;;41.40;13.30;;;;;;;-148.88;100.00;77965.44;5014476;28;20163;-75
2022/12/03 01:19:00;;;;;;;44.80;14.10;;;;;;;-148.88;100.00;77973.56;5014219;28;20499;-75
2022/12/03 01:21:25;;;;;;;41.35;13.80;;;;;;;-148.88;100.00;77969.50;5014178;28;20037;-75
2022/12/03 01:23:51;;;;;;;36.90;13.18;;;;;;;-148.88;100.00;77971.53;5014142;28;20053;-76
2022/12/03 01:26:16;;;;;;;38.13;13.57;;;;;;;-148.88;100.00;77971.53;5014123;28;20107;-75
2022/12/03 01:28:41;;;;;;;48.40;14.73;;;;;;;-148.88;100.00;77979.66;5013957;28;20053;-75
2022/12/03 01:33:51;;;;;;;49.03;15.48;;;;;;;-148.88;100.00;77979.66;5013769;28;20103;-75
2022/12/03 01:36:16;;;;;;;42.05;13.43;;;;;;;-148.88;100.00;77975.59;5013918;28;20109;-75
2022/12/03 01:38:42;;;;;;;47.38;14.93;;;;;;;-148.88;100.00;77979.66;5012501;28;20492;-76
2022/12/03 01:41:07;;;;;;;44.47;14.52;;;;;;;-148.88;100.00;77971.53;5035733;22;20092;-82
2022/12/03 01:43:32;;;;;;;41.13;14.95;;;;;;;-148.88;100.00;77971.53;5014333;28;20022;-83
2022/12/03 01:45:58;;;;;;;51.63;15.57;;;;;;;-148.88;100.00;77987.78;5012804;28;20022;-83
2022/12/03 01:48:23;;;;;;;39.30;14.55;;;;;;;-148.88;100.00;77987.78;5014440;28;20105;-83
2022/12/03 01:50:48;;;;;;;45.38;12.63;;;;;;;-148.88;100.00;77983.72;5012616;28;20032;-83
2022/12/03 01:53:17;;;;;;;47.05;14.73;;;;;;;-148.88;100.00;77985.75;5012391;28;20029;-83
2022/12/03 01:55:43;;;;;;;44.28;12.02;;;;;;;-148.88;100.00;77981.69;5013875;28;20104;-82
2022/12/03 01:58:12;;;;;;;53.17;15.85;;;;;;;-148.88;100.00;77987.78;5012635;28;20116;-83
2022/12/03 02:00:39;;;;;;;51.72;14.10;;;;;;;-148.88;100.00;77981.69;5012391;28;20024;-83
2022/12/03 02:03:14;;;;;;;41.65;12.75;;;;;;;-148.88;100.00;77991.84;5014096;28;20072;-82
2022/12/03 02:05:40;;;;;;;44.05;15.15;;;;;;;-148.88;100.00;77987.78;5012731;28;20030;-82
2022/12/03 02:08:34;;;;;;;45.10;13.45;;;;;;;-148.88;100.00;77991.84;5012564;28;20103;-83
2022/12/03 02:11:46;;;;;;;40.03;13.10;;;;;;;-148.88;100.00;77991.84;5012353;28;20480;-83
2022/12/03 02:14:20;;;;;;;42.33;12.48;;;;;;;-148.88;100.00;77985.75;5013699;28;20108;-83
2022/12/03 02:16:46;;;;;;;46.83;14.60;;;;;;;-148.88;100.00;77991.84;5013558;28;20049;-83
2022/12/03 02:19:28;;;;;;;47.95;15.00;;;;;;;-148.88;100.00;77987.78;5013112;28;20464;-83
2022/12/03 02:22:02;;;;;;;44.08;12.48;;;;;;;-148.88;100.00;77991.84;5012473;28;20029;-83
2022/12/03 02:24:52;;;;;;;50.92;14.73;;;;;;;-148.88;100.00;77995.94;5013697;28;20112;-83
2022/12/03 02:27:18;;;;;;;35.25;14.13;;;;;;;-148.88;100.00;77987.78;5012973;28;20384;-82
2022/12/03 02:29:43;;;;;;;40.20;13.70;;;;;;;-148.88;100.00;77987.78;5012546;28;20030;-81
2022/12/03 02:32:08;;;;;;;41.50;14.00;;;;;;;-148.88;100.00;77983.72;5013194;28;20049;-83
2022/12/03 02:34:44;;;;;;;42.65;14.55;;;;;;;-148.88;100.00;77979.66;5012296;28;20022;-83
2022/12/03 02:37:16;;;;;;;38.47;12.20;;;;;;;-148.88;100.00;77975.59;5013581;28;20026;-83
2022/12/03 02:39:47;;;;;;;43.15;12.75;;;;;;;-148.88;100.00;77983.72;5011962;28;20330;-83
2022/12/03 02:44:58;;;;;;;;;;;;;;;-148.88;100.00;77983.72;5014021;28;20037;-83
2022/12/03 02:47:24;;;;;;;38.35;12.73;;;;;;;-148.88;100.00;77989.81;5013338;28;20379;-83
2022/12/03 02:49:51;;;;;;;38.83;11.93;;;;;;;-148.88;100.00;77991.84;5017876;28;20045;-84
2022/12/03 02:52:16;;;;;;;46.38;13.43;;;;;;;-148.88;100.00;78004.06;5017013;28;20030;-84
2022/12/03 02:54:41;;;;;;;49.00;14.43;;;;;;;-148.88;100.00;78000.00;5015985;28;20398;-84
2022/12/03 02:57:07;;;;;;;50.83;15.80;;;;;;;-148.88;100.00;77997.97;5017301;28;20144;-83
2022/12/03 02:59:33;;;;;;;49.45;15.48;;;;;;;-148.88;100.00;78004.06;5013109;28;20030;-84
2022/12/03 03:01:58;;;;;;;50.58;15.20;;;;;;;-148.88;100.00;78000.00;5013102;28;20104;-83
2022/12/03 03:04:23;;;;;;;51.15;16.05;;;;;;;-148.88;100.00;78000.00;5011636;28;20057;-82
2022/12/03 03:06:50;;;;;;;52.42;14.95;;;;;;;-148.88;100.00;78004.06;5013443;28;20120;-84
2022/12/03 03:09:15;;;;;;;48.15;14.80;;;;;;;-148.88;100.00;78012.19;5016345;28;20085;-84
2022/12/03 03:11:41;;;;;;;50.28;15.60;;;;;;;-148.88;100.00;78012.19;5015902;28;20060;-84
2022/12/03 03:14:08;;;;;;;47.90;15.55;;;;;;;-148.88;100.00;78008.13;5018452;28;20109;-84
2022/12/03 03:16:34;;;;;;;56.67;15.38;;;;;;;-148.88;100.00;78004.06;5019626;28;20030;-84
2022/12/03 03:19:00;;;;;;;51.92;15.98;;;;;;;-148.88;100.00;78006.09;5020671;28;20032;-84
2022/12/03 03:21:25;;;;;;;52.60;15.93;;;;;;;-148.88;100.00;78004.06;5018476;28;20026;-84
2022/12/03 03:23:51;;;;;;;60.50;18.52;;;;;;;-148.88;100.00;78004.06;5017893;28;20047;-83
2022/12/03 03:26:16;;;;;;;60.67;18.23;;;;;;;-148.88;100.00;78006.09;5015477;28;20029;-82
2022/12/03 03:28:45;;;;;;;54.10;16.20;;;;;;;-148.88;100.00;78012.19;5015344;28;20545;-83
2022/12/03 03:31:13;;;;;;;61.58;17.30;;;;;;;-148.88;100.00;78016.25;5015727;28;20084;-83
2022/12/03 03:33:42;;;;;;;58.10;18.83;;;;;;;-148.88;100.00;78020.31;5016785;28;20026;-83
2022/12/03 03:36:08;;;;;;;55.28;17.42;;;;;;;-148.88;100.00;78028.44;5016826;28;20026;-83
2022/12/03 03:38:35;;;;;;;55.35;16.98;;;;;;;-148.88;100.00;78028.44;5015081;28;20404;-82
2022/12/03 03:41:04;;;;;;;66.30;19.17;;;;;;;-148.88;100.00;78028.44;5014822;28;20030;-83
2022/12/03 03:43:33;;;;;;;62.47;17.05;;;;;;;-148.88;100.00;78024.38;5014924;28;20017;-83
2022/12/03 03:46:02;;;;;;;55.10;18.00;;;;;;;-148.88;100.00;78020.31;5016516;28;20076;-83
2022/12/03 03:48:27;;;;;;;63.13;19.05;;;;;;;-148.88;100.00;78020.31;5016294;28;20476;-83
2022/12/03 03:50:53;;;;;;;48.08;15.38;;;;;;;-148.88;100.00;78032.50;5015861;28;20040;-83
2022/12/03 03:53:20;;;;;;;56.15;16.42;;;;;;;-148.88;100.00;78020.31;5014880;28;20491;-82
2022/12/03 03:55:46;;;;;;;57.38;17.77;;;;;;;-148.88;100.00;78020.31;5014915;28;20040;-82
2022/12/03 03:58:12;;;;;;;52.17;15.77;;;;;;;-148.88;100.00;78028.44;5023574;28;20488;-82
2022/12/03 04:00:37;;;;;;;46.63;16.33;;;;;;;-148.88;100.00;78036.56;5031523;28;20049;-82
2022/12/03 04:03:04;;;;;;;46.83;14.48;;;;;;;-148.88;100.00;78028.44;5033257;28;20079;-83
2022/12/03 04:05:29;;;;;;;51.22;16.10;;;;;;;-148.88;100.00;78030.47;5032057;28;20026;-82
2022/12/03 04:07:55;;;;;;;42.22;14.77;;;;;;;-148.88;100.00;78028.44;5032379;28;20094;-83
2022/12/03 04:13:04;;;;;;;50.22;14.70;;;;;;;-148.88;100.00;78026.41;5024606;28;20028;-85
2022/12/03 04:15:30;;;;;;;46.58;14.15;;;;;;;-148.88;100.00;78036.56;5022286;28;20480;-85
2022/12/03 04:20:40;;;;;;;44.75;13.48;;;;;;;-148.88;100.00;78030.47;5027380;28;20083;-85
2022/12/03 04:23:05;;;;;;;41.28;14.88;;;;;;;-148.88;100.00;78032.50;5026389;28;20124;-84
2022/12/03 04:30:59;;;;;;;;;;;;;;;-148.88;100.00;78036.56;5027685;28;20080;-84
2022/12/03 04:36:09;;;;;;;43.30;15.40;;;;;;;-148.88;100.00;78036.56;5027669;28;20038;-84
2022/12/03 04:38:34;;;;;;;42.00;13.68;;;;;;;-148.88;100.00;78036.56;5025943;28;20117;-84
2022/12/03 04:41:00;;;;;;;48.72;14.65;;;;;;;-148.88;100.00;78032.50;5024908;28;20037;-84
2022/12/03 04:43:31;;;;;;;49.30;14.85;;;;;;;-148.88;100.00;78040.63;5023719;28;20101;-85
2022/12/03 04:45:57;;;;;;;48.50;14.18;;;;;;;-148.88;100.00;78044.69;5013972;28;20433;-84
2022/12/03 04:48:22;;;;;;;58.38;15.20;;;;;;;-148.88;100.00;78048.78;5014122;28;20044;-84
2022/12/03 04:50:48;;;;;;;47.42;14.10;;;;;;;-148.88;100.00;78048.78;5016930;28;20018;-84
2022/12/03 04:53:13;;;;;;;52.50;15.55;;;;;;;-148.88;100.00;78040.63;5026563;28;20029;-85
2022/12/03 04:55:38;;;;;;;51.17;14.50;;;;;;;-148.88;100.00;78056.91;5026261;28;20026;-84
2022/12/03 04:58:05;;;;;;;45.22;13.88;;;;;;;-148.88;100.00;78054.88;5028082;28;20522;-85
2022/12/03 05:00:30;;;;;;;50.45;14.35;;;;;;;-148.88;100.00;78060.97;5026715;28;20053;-85
2022/12/03 05:02:56;;;;;;;56.30;15.60;;;;;;;-148.88;100.00;78052.84;5025486;28;20014;-84
2022/12/03 05:05:21;;;;;;;55.25;16.45;;;;;;;-148.88;100.00;78052.84;5026159;28;20081;-84
2022/12/03 05:07:46;;;;;;;57.15;15.98;;;;;;;-148.88;100.00;78050.81;5023599;28;20090;-85
2022/12/03 05:10:12;;;;;;;62.70;16.98;;;;;;;-148.88;100.00;78060.97;5022779;28;20037;-85
2022/12/03 05:12:37;;;;;;;60.45;16.65;;;;;;;-148.88;100.00;78065.03;5023154;28;20057;-83
2022/12/03 05:15:04;;;;;;;64.55;17.17;;;;;;;-148.88;100.00;78060.97;5021842;28;20060;-84
2022/12/03 05:17:29;;;;;;;61.08;17.98;;;;;;;-148.88;100.00;78065.03;5024087;28;20381;-84
2022/12/03 05:22:38;;;;;;;58.55;17.52;;;;;;;-148.88;100.00;78069.09;5015308;28;20448;-83
2022/12/03 05:25:04;;;;;;;58.17;17.40;;;;;;;-148.88;100.00;78069.09;5014484;28;20523;-83
2022/12/03 05:27:30;;;;;;;57.40;15.40;;;;;;;-148.88;100.00;78069.09;5013306;28;20033;-83
2022/12/03 05:29:55;;;;;;;52.95;17.98;;;;;;;-148.88;100.00;78067.06;5014662;28;20022;-84
2022/12/03 05:32:20;;;;;;;63.15;16.85;;;;;;;-148.88;100.00;78071.13;5016707;28;20036;-84
2022/12/03 05:34:46;;;;;;;58.67;18.17;;;;;;;-148.88;100.00;78060.97;5021425;28;20108;-85
2022/12/03 05:37:12;;;;;;;66.88;17.80;;;;;;;-148.88;100.00;78065.03;5020608;28;20029;-84
2022/12/03 05:39:37;;;;;;;53.13;17.17;;;;;;;-148.88;100.00;78060.97;5019321;28;20022;-84
2022/12/03 05:44:47;;;;;;;51.30;17.20;;;;;;;-148.88;100.00;78046.72;5019926;28;20451;-85
2022/12/03 05:47:12;;;;;;;51.83;17.35;;;;;;;-148.88;100.00;78056.91;5018060;28;20034;-85
2022/12/03 05:49:37;;;;;;;55.85;16.90;;;;;;;-148.88;100.00;78050.81;5018977;28;20080;-84
2022/12/03 05:52:03;;;;;;;49.08;15.73;;;;;;;-148.88;100.00;78054.88;5018874;28;20022;-84
2022/12/03 05:54:28;;;;;;;52.58;15.43;;;;;;;-148.88;100.00;78056.91;5017007;28;20037;-83
2022/12/03 05:56:54;;;;;;;54.92;15.25;;;;;;;-148.88;100.00;78056.91;5012743;28;20095;-85
2022/12/03 05:59:19;;;;;;;49.80;15.75;;;;;;;-148.88;100.00;78058.94;5012739;28;20022;-82
2022/12/03 06:01:45;;;;;;;46.92;15.07;;;;;;;-148.88;100.00;78052.84;5014500;28;20057;-83
2022/12/03 06:04:10;;;;;;;50.63;14.95;;;;;;;-148.88;100.00;78046.72;5012521;28;20427;-83
2022/12/03 06:06:35;;;;;;;47.63;14.07;;;;;;;-148.88;100.00;78046.72;5013682;28;20029;-83
2022/12/03 06:09:00;;;;;;;46.17;14.27;;;;;;;-148.88;100.00;78036.56;5012363;28;20030;-82
2022/12/03 06:11:28;;;;;;;45.90;15.07;;;;;;;-148.88;100.00;78038.59;5013931;28;20022;-83
2022/12/03 06:13:53;;;;;;;43.10;13.70;;;;;;;-148.88;100.00;78046.72;5013620;28;20021;-81
2022/12/03 06:16:19;;;;;;;41.75;14.18;;;;;;;-148.88;100.00;78040.63;5013956;28;20435;-81
2022/12/03 06:18:44;;;;;;;49.78;14.57;;;;;;;-148.88;100.00;78036.56;5013871;28;20022;-79
2022/12/03 06:21:09;;;;;;;44.10;13.90;;;;;;;-148.88;100.00;78044.69;5013622;28;20446;-80
2022/12/03 06:23:36;;;;;;;49.35;15.07;;;;;;;-148.88;100.00;78036.56;5012083;28;20013;-79
2022/12/03 06:26:01;;;;;;;50.40;14.95;;;;;;;-148.88;100.00;78038.59;5012397;28;20030;-79
2022/12/03 06:28:26;;;;;;;43.60;14.98;;;;;;;-148.88;100.00;78032.50;5013438;28;20018;-80
2022/12/03 06:30:52;;;;;;;46.28;14.65;;;;;;;-148.88;100.00;78032.50;5012699;28;20056;-80
2022/12/03 06:33:17;;;;;;;52.38;14.77;;;;;;;-148.88;100.00;78044.69;5011735;28;20057;-80
2022/12/03 06:35:42;;;;;;;46.53;14.00;;;;;;;-148.88;100.00;78038.59;5011810;28;20030;-80
2022/12/03 06:38:07;;;;;;;42.25;13.25;;;;;;;-148.88;100.00;78040.63;5011908;28;20025;-81
2022/12/03 06:40:33;;;;;;;42.45;14.38;;;;;;;-148.88;100.00;78032.50;5011695;28;20083;-80
2022/12/03 06:42:58;;;;;;;48.45;13.60;;;;;;;-148.88;100.00;78034.53;5012484;28;20021;-81
2022/12/03 06:45:23;;;;;;;46.15;14.85;;;;;;;-148.88;100.00;78038.59;5012098;28;20492;-80
2022/12/03 06:47:49;;;;;;;40.60;12.93;;;;;;;-148.88;100.00;78038.59;5013052;28;20022;-81
2022/12/03 06:50:14;;;;;;;45.78;13.45;;;;;;;-148.88;100.00;78032.50;5020993;28;20033;-83
2022/12/03 06:52:39;;;;;;;41.33;12.80;;;;;;;-148.88;100.00;78016.25;5019477;28;20502;-81
2022/12/03 06:55:06;;;;;;;46.65;12.73;;;;;;;-148.88;100.00;78016.25;5018870;28;20033;-80
2022/12/03 06:57:31;;;;;;;38.50;12.85;;;;;;;-148.88;100.00;78032.50;5019405;28;20033;-80
2022/12/03 06:59:56;;;;;;;42.85;13.77;;;;;;;-148.88;100.00;78032.50;5018003;28;20026;-81
2022/12/03 07:02:22;;;;;;;46.22;15.27;;;;;;;-148.88;100.00;78032.50;5018698;28;20033;-81
2022/12/03 07:04:47;;;;;;;46.28;13.65;;;;;;;-148.88;100.00;78032.50;5020591;28;20037;-80
2022/12/03 07:07:13;;;;;;;51.22;14.73;;;;;;;-148.88;100.00;78032.50;5016537;28;20033;-80
2022/12/03 07:09:38;;;;;;;44.65;13.55;;;;;;;-148.88;100.00;78044.69;5015740;28;20084;-80
2022/12/03 07:12:04;;;;;;;52.63;14.82;;;;;;;-148.88;100.00;78040.63;5016744;28;20084;-80
2022/12/03 07:14:29;;;;;;;43.63;13.07;;;;;;;-148.88;100.00;78044.69;5016262;28;20037;-79
2022/12/03 07:16:54;;;;;;;44.22;12.35;;;;;;;-148.88;100.00;78046.72;5017141;28;20472;-80
2022/12/03 07:19:19;;;;;;;40.47;13.82;;;;;;;-148.88;100.00;78036.56;5016050;28;20034;-79
2022/12/03 07:21:45;;;;;;;49.97;13.57;;;;;;;-148.88;100.00;78040.63;5017615;28;20018;-79
2022/12/03 07:24:10;;;;;;;44.40;13.82;;;;;;;-148.88;100.00;78030.47;5017341;28;20041;-81
2022/12/03 07:26:36;;;;;;;39.80;13.38;;;;;;;-148.88;100.00;78034.53;5018203;28;20022;-79
2022/12/03 07:29:01;;;;;;;44.75;12.68;;;;;;;-148.88;100.00;78028.44;5017587;28;20025;-81
2022/12/03 07:31:26;;;;;;;43.50;13.10;;;;;;;-148.88;100.00;78028.44;5015741;28;20030;-81
2022/12/03 07:33:52;;;;;;;40.92;12.55;;;;;;;-148.88;100.00;78024.38;5015298;28;20514;-80
2022/12/03 07:36:17;;;;;;;32.92;11.63;;;;;;;-148.88;100.00;78038.59;5016012;28;20025;-81
2022/12/03 07:38:42;;;;;;;35.63;11.63;;;;;;;-148.88;100.00;78044.69;5015554;28;20507;-81
2022/12/03 07:41:08;;;;;;;41.95;12.45;;;;;;;-148.88;100.00;78040.63;5029608;22;20132;-76
2022/12/03 07:43:33;;;;;;;36.78;10.30;;;;;;;-148.88;100.00;78046.72;5016275;28;20436;-75
2022/12/03 07:45:58;;;;;;;30.42;10.45;;;;;;;-148.88;100.00;78040.63;5016133;28;20495;-75
2022/12/03 07:48:23;;;;;;;36.67;11.13;;;;;;;-148.88;100.00;78044.69;5016837;28;20107;-78
2022/12/03 07:50:49;;;;;;;31.23;9.98;;;;;;;-148.88;100.00;78040.63;5015731;28;20026;-75
2022/12/03 07:53:14;;;;;;;31.88;10.65;;;;;;;-148.88;100.00;78036.56;5016201;28;20022;-76
2022/12/03 07:55:40;;;;;;;37.42;10.23;;;;;;;-148.88;100.00;78028.44;5015482;28;20021;-75
2022/12/03 07:58:06;;;;;;;31.77;10.55;;;;;;;-148.88;100.00;78042.66;5015321;28;20112;-75
2022/12/03 08:00:31;;;;;;;37.47;10.57;;;;;;;-148.88;100.00;78046.72;5015904;28;20025;-76
2022/12/03 08:02:56;;;;;;;35.45;10.88;;;;;;;-148.88;100.00;78040.63;5015756;28;20022;-75
2022/12/03 08:05:22;;;;;;;36.33;10.57;;;;;;;-148.88;100.00;78036.56;5015177;28;20034;-75
2022/12/03 08:07:47;;;;;;;30.33;9.35;;;;;;;-148.88;100.00;78036.56;5015295;28;20048;-75
2022/12/03 08:10:12;;;;;;;36.20;10.65;;;;;;;-148.88;100.00;78038.59;5015510;28;20481;-75
2022/12/03 08:12:41;;;;;;;31.58;10.65;;;;;;;-148.88;100.00;78038.59;5015393;28;20564;-76
2022/12/03 08:15:10;;;;;;;28.98;9.32;;;;;;;-148.88;100.00;78044.69;5014118;28;20079;-73
2022/12/03 08:17:37;;;;;;;34.85;11.70;;;;;;;-148.88;100.00;78040.63;5016686;28;20424;-74
2022/12/03 08:20:11;;;;;;;38.83;11.38;;;;;;;-148.88;100.00;78036.56;5016687;28;20026;-74
2022/12/03 08:22:37;;;;;;;34.97;11.88;;;;;;;-148.88;100.00;78046.72;5015984;28;20033;-74
2022/12/03 08:25:09;;;;;;;35.72;11.02;;;;;;;-148.88;100.00;78044.69;5015849;28;20117;-75
2022/12/03 08:27:34;;;;;;;44.10;12.23;;;;;;;-148.88;100.00;78052.84;5014005;28;20037;-75
2022/12/03 08:30:03;;;;;;;33.30;10.50;;;;;;;-148.88;100.00;78056.91;5016129;28;20022;-78
2022/12/03 08:32:30;;;;;;;45.72;12.70;;;;;;;-148.88;100.00;78060.97;5014960;28;20033;-76
2022/12/03 08:34:56;;;;;;;46.47;13.50;;;;;;;-148.88;100.00;78065.03;5015457;28;20384;-76
2022/12/03 08:37:21;;;;;;;40.17;11.13;;;;;;;-148.88;100.00;78056.91;5015590;28;20025;-77
2022/12/03 08:39:48;;;;;;;38.05;12.63;;;;;;;-148.88;100.00;78056.91;5014939;28;20025;-76
2022/12/03 08:42:40;;;;;;;41.95;12.90;;;;;;;-148.88;100.00;78065.03;5013535;28;20104;-77
2022/12/03 08:45:27;;;;;;;38.72;10.73;;;;;;;-148.88;100.00;78060.97;5013819;28;20032;-75
2022/12/03 08:48:03;;;;;;;41.42;13.80;;;;;;;-148.88;100.00;78058.94;5013487;28;20432;-74
2022/12/03 08:50:37;;;;;;;38.00;12.75;;;;;;;-148.88;100.00;78056.91;5015058;28;20439;-74
2022/12/03 08:53:15;;;;;;;;;;;;;;;-148.88;100.00;78063.00;5015255;28;20117;-73
2022/12/03 08:55:51;;;;;;;45.50;13.45;;;;;;;-148.88;100.00;78052.84;5015254;28;20269;-73
2022/12/03 08:58:36;;;;;;;44.33;12.90;;;;;;;-148.88;100.00;78063.00;5013405;28;20041;-75
2022/12/03 09:01:14;;;;;;;45.70;13.98;;;;;;;-148.88;100.00;78052.84;5014768;28;20105;-74
2022/12/03 09:03:51;;;;;;;48.97;15.02;;;;;;;-148.88;100.00;78060.97;5014502;28;20033;-74
2022/12/03 09:06:16;;;;;;;39.83;13.63;;;;;;;-148.88;100.00;78065.03;5014461;28;20032;-74
2022/12/03 09:08:41;;;;;;;43.90;15.25;;;;;;;-148.88;100.00;78054.88;5014405;28;20025;-75
2022/12/03 09:11:07;;;;;;;47.55;15.25;;;;;;;-148.88;100.00;78048.78;5013907;28;20439;-76
2022/12/03 09:13:32;;;;;;;53.13;14.57;;;;;;;-148.88;100.00;78048.78;5014313;28;20038;-76
2022/12/03 09:15:57;;;;;;;41.80;13.25;;;;;;;-148.88;100.00;78048.78;5014372;28;20029;-76
2022/12/03 09:18:23;;;;;;;45.50;12.80;;;;;;;-148.88;100.00;78038.59;5013042;28;20033;-75
2022/12/03 09:20:48;;;;;;;46.33;14.93;;;;;;;-148.88;100.00;78036.56;5014455;28;20052;-77
2022/12/03 09:23:13;;;;;;;43.17;13.65;;;;;;;-148.88;100.00;78044.69;5014462;28;20033;-76
2022/12/03 09:25:39;;;;;;;40.75;12.95;;;;;;;-148.88;100.00;78044.69;5014442;28;20026;-78
2022/12/03 09:28:04;;;;;;;48.85;14.35;;;;;;;-148.88;100.00;78044.69;5015254;28;20484;-77
2022/12/03 09:30:29;;;;;;;42.05;12.68;;;;;;;-148.88;100.00;78036.56;5013071;28;20034;-77
2022/12/03 09:32:55;;;;;;;40.38;13.10;;;;;;;-148.88;100.00;78036.56;5014401;28;20484;-76
2022/12/03 09:35:20;;;;;;;41.65;11.98;;;;;;;-148.88;100.00;78040.63;5014282;28;20538;-76
2022/12/03 09:37:45;;;;;;;46.33;14.00;;;;;;;-148.88;100.00;78034.53;5012867;28;20049;-76
2022/12/03 09:40:11;;;;;;;47.28;15.85;;;;;;;-148.88;100.00;78038.59;5013774;28;20034;-75
2022/12/03 09:42:37;;;;;;;50.08;16.02;;;;;;;-148.88;100.00;78036.56;5012477;28;20420;-75
2022/12/03 09:45:06;;;;;;;55.28;17.35;;;;;;;-148.88;100.00;78034.53;5013782;28;20055;-76
2022/12/03 09:47:32;;;;;;;49.33;14.85;;;;;;;-148.88;100.00;78028.44;5013837;28;20116;-76
2022/12/03 09:49:57;;;;;;;55.67;15.13;;;;;;;-148.88;100.00;78032.50;5013595;28;20107;-77
2022/12/03 09:52:27;;;;;;;58.72;16.63;;;;;;;-148.88;100.00;78020.31;5015808;28;20197;-77
2022/12/03 09:54:52;;;;;;;56.15;15.85;;;;;;;-148.88;100.00;78020.31;5016046;28;20033;-77
2022/12/03 09:57:17;;;;;;;59.13;17.63;;;;;;;-148.88;100.00;78026.41;5014294;28;20030;-76
2022/12/03 09:59:43;;;;;;;57.05;16.92;;;;;;;-148.88;100.00;78028.44;5013620;28;20405;-77
2022/12/03 10:02:20;;;;;;;58.03;16.65;;;;;;;-148.88;100.00;78022.34;5014016;28;20025;-76
2022/12/03 10:04:46;;;;;;;55.47;15.50;;;;;;;-148.88;100.00;78016.25;5013922;28;20030;-75
2022/12/03 10:07:11;;;;;;;52.55;16.95;;;;;;;-148.88;100.00;78016.25;5013816;28;20072;-75
2022/12/03 10:09:37;;;;;;;49.95;16.45;;;;;;;-148.88;100.00;78008.13;5012355;28;20025;-76
2022/12/03 10:12:02;;;;;;;54.35;18.08;;;;;;;-148.88;100.00;78012.19;5012179;28;20029;-76
2022/12/03 10:14:29;;;;;;;51.55;15.32;;;;;;;-148.88;100.00;78010.16;5013495;28;20029;-76
2022/12/03 10:16:54;;;;;;;61.03;15.55;;;;;;;-148.88;100.00;78010.16;5013677;28;20025;-76
2022/12/03 10:19:26;;;;;;;54.08;16.73;;;;;;;-148.88;100.00;78012.19;5013513;28;20025;-76
2022/12/03 10:21:51;;;;;;;58.95;17.77;;;;;;;-148.88;100.00;77995.94;5013326;28;20104;-77
2022/12/03 10:24:27;;;;;;;55.00;16.48;;;;;;;-148.88;100.00;77995.94;5013275;28;20504;-78
2022/12/03 10:26:55;;;;;;;56.33;17.08;;;;;;;-148.88;100.00;77995.94;5012438;28;20040;-75
2022/12/03 10:29:26;;;;;;;51.17;17.40;;;;;;;-148.88;100.00;78006.09;5013404;28;20030;-77
2022/12/03 10:32:23;;;;;;;60.05;16.20;;;;;;;-148.88;100.00;78008.13;5013985;28;20029;-76
2022/12/03 10:34:48;;;;;;;52.47;15.98;;;;;;;-148.88;100.00;77993.91;5012444;28;20460;-79
2022/12/03 10:37:19;;;;;;;47.40;16.08;;;;;;;-148.88;100.00;77991.84;5013424;28;20026;-75
2022/12/03 10:39:53;;;;;;;50.20;14.65;;;;;;;-148.88;100.00;77987.78;5011676;28;20029;-75
2022/12/03 10:42:18;;;;;;;53.05;15.68;;;;;;;-148.88;100.00;77983.72;5012916;28;20401;-75
2022/12/03 10:44:44;;;;;;;49.75;15.73;;;;;;;-148.88;100.00;77987.78;5013100;28;20469;-75
2022/12/03 10:47:11;;;;;;;49.65;16.13;;;;;;;-148.88;100.00;77983.72;5013403;28;20041;-79
2022/12/03 10:49:38;;;;;;;56.45;15.88;;;;;;;-148.88;100.00;77985.75;5013151;28;20056;-74
2022/12/03 10:52:04;;;;;;;52.10;16.23;;;;;;;-148.88;100.00;77971.53;5012904;28;20398;-75
2022/12/03 10:54:34;;;;;;;50.97;15.40;;;;;;;-148.88;100.00;77967.47;5012873;28;20029;-75
2022/12/03 10:57:00;;;;;;;50.58;16.30;;;;;;;-148.88;100.00;77963.41;5012859;28;20022;-76
2022/12/03 10:59:32;;;;;;;41.30;15.38;;;;;;;-148.88;100.00;77961.38;5013002;28;20546;-74
2022/12/03 11:01:57;;;;;;;51.20;17.88;;;;;;;-148.88;100.00;77959.34;5013047;28;20034;-75
2022/12/03 11:04:30;;;;;;;49.17;15.73;;;;;;;-148.88;100.00;77955.28;5013147;28;20030;-75
2022/12/03 11:06:56;;;;;;;49.13;16.30;;;;;;;-148.88;100.00;77947.16;5012961;28;20022;-74
2022/12/03 11:09:27;;;;;;;59.85;18.30;;;;;;;-148.88;100.00;77951.22;5012898;28;20108;-77
2022/12/03 11:11:53;;;;;;;54.03;16.98;;;;;;;-148.88;100.00;77951.22;5013817;28;20117;-75
2022/12/03 11:14:49;;;;;;;60.92;17.55;;;;;;;-148.88;100.00;77939.03;5015823;28;20081;-75
2022/12/03 11:17:24;;;;;;;51.42;15.73;;;;;;;-148.88;100.00;77947.16;5012855;28;20129;-76
2022/12/03 11:19:52;;;;;;;56.00;18.45;;;;;;;-148.88;100.00;77941.06;5013145;28;20052;-76